createdAt,value
2019-05-12T00:00:52.570Z,13.40
2019-05-12T00:03:21.725Z,13.50
2019-05-12T00:05:52.445Z,13.50
2019-05-12T00:08:21.572Z,13.50
2019-05-12T00:10:50.711Z,13.50
2019-05-12T00:13:20.410Z,13.50
2019-05-12T00:15:49.498Z,13.50
2019-05-12T00:18:18.596Z,13.40
2019-05-12T00:20:48.483Z,13.50
2019-05-12T00:23:24.943Z,13.40
2019-05-12T00:25:48.589Z,13.40
2019-05-12T00:28:18.011Z,13.40
2019-05-12T00:30:50.317Z,13.40
2019-05-12T00:33:19.615Z,13.40
2019-05-12T00:35:48.802Z,13.40
2019-05-12T00:38:18.040Z,13.40
2019-05-12T00:40:48.025Z,13.40
2019-05-12T00:43:18.742Z,13.30
2019-05-12T00:45:48.283Z,13.30
2019-05-12T00:48:17.976Z,13.30
2019-05-12T00:50:48.616Z,13.30
2019-05-12T00:53:18.873Z,13.30
2019-05-12T00:55:48.240Z,13.20
2019-05-12T00:58:19.395Z,13.20
2019-05-12T01:00:48.331Z,13.20
2019-05-12T01:03:18.847Z,13.30
2019-05-12T01:05:48.718Z,13.30
2019-05-12T01:08:18.858Z,13.20
2019-05-12T01:10:48.051Z,13.10
2019-05-12T01:13:38.160Z,13.10
2019-05-12T01:16:08.091Z,13.00
2019-05-12T01:18:38.495Z,13.00
2019-05-12T01:21:07.844Z,13.00
2019-05-12T01:23:52.884Z,13.00
2019-05-12T01:26:09.806Z,13.00
2019-05-12T01:28:38.791Z,12.90
2019-05-12T01:31:09.446Z,12.90
2019-05-12T01:33:38.442Z,12.80
2019-05-12T01:36:07.977Z,12.90
2019-05-12T01:38:37.952Z,13.00
2019-05-12T01:41:08.766Z,13.00
2019-05-12T01:43:38.295Z,13.10
2019-05-12T01:46:08.075Z,13.00
2019-05-12T01:48:37.836Z,12.90
2019-05-12T01:51:08.419Z,12.90
2019-05-12T01:53:38.019Z,12.90
2019-05-12T01:56:07.856Z,13.00
2019-05-12T01:58:38.184Z,12.90
2019-05-12T02:01:08.248Z,12.90
2019-05-12T02:03:37.774Z,12.90
2019-05-12T02:06:08.427Z,12.80
2019-05-12T02:08:54.943Z,12.80
2019-05-12T02:11:32.877Z,12.90
2019-05-12T02:14:03.423Z,12.90
2019-05-12T02:16:33.095Z,12.90
2019-05-12T02:19:04.277Z,12.70
2019-05-12T02:21:33.483Z,12.80
2019-05-12T02:24:02.944Z,12.80
2019-05-12T02:26:32.159Z,12.80
2019-05-12T02:29:01.193Z,12.90
2019-05-12T02:31:30.224Z,12.80
2019-05-12T02:33:59.760Z,12.80
2019-05-12T02:36:28.751Z,12.70
2019-05-12T02:38:57.813Z,12.70
2019-05-12T02:41:27.317Z,12.60
2019-05-12T02:43:56.478Z,12.70
2019-05-12T02:46:25.924Z,12.70
2019-05-12T02:48:55.404Z,12.80
2019-05-12T02:51:25.081Z,12.80
2019-05-12T02:53:55.603Z,12.70
2019-05-12T02:56:26.121Z,12.70
2019-05-12T02:58:56.123Z,12.70
2019-05-12T03:01:28.518Z,12.80
2019-05-12T03:04:05.736Z,12.80
2019-05-12T03:06:37.025Z,12.80
2019-05-12T03:09:08.573Z,12.70
2019-05-12T03:11:38.285Z,12.60
2019-05-12T03:14:07.553Z,12.70
2019-05-12T03:16:36.597Z,12.60
2019-05-12T03:19:05.841Z,12.60
2019-05-12T03:21:35.626Z,12.60
2019-05-12T03:24:06.434Z,12.60
2019-05-12T03:26:36.088Z,12.50
2019-05-12T03:29:06.108Z,12.50
2019-05-12T03:31:39.982Z,12.50
2019-05-12T03:34:09.621Z,12.50
2019-05-12T03:36:41.990Z,12.60
2019-05-12T03:39:09.282Z,12.60
2019-05-12T03:41:38.614Z,12.70
2019-05-12T03:44:07.849Z,12.70
2019-05-12T03:46:37.316Z,12.50
2019-05-12T03:49:06.497Z,12.50
2019-05-12T03:51:36.536Z,12.40
2019-05-12T03:54:05.711Z,12.40
2019-05-12T03:56:35.204Z,12.40
2019-05-12T03:59:05.353Z,12.30
2019-05-12T04:01:36.583Z,12.30
2019-05-12T04:04:06.175Z,12.40
2019-05-12T04:06:35.354Z,12.40
2019-05-12T04:09:06.881Z,12.30
2019-05-12T04:11:36.160Z,12.20
2019-05-12T04:14:05.711Z,12.30
2019-05-12T04:16:36.333Z,12.30
2019-05-12T04:19:06.047Z,12.30
2019-05-12T04:21:35.688Z,12.40
2019-05-12T04:24:06.287Z,12.30
2019-05-12T04:26:36.732Z,12.30
2019-05-12T04:29:06.272Z,12.30
2019-05-12T04:31:36.665Z,12.30
2019-05-12T04:34:05.978Z,12.20
2019-05-12T04:36:35.954Z,12.20
2019-05-12T04:39:07.996Z,12.30
2019-05-12T04:41:38.299Z,12.30
2019-05-12T04:44:07.575Z,12.20
2019-05-12T04:46:36.677Z,12.20
2019-05-12T04:49:06.065Z,12.30
2019-05-12T04:51:35.516Z,12.20
2019-05-12T04:54:05.835Z,12.20
2019-05-12T04:56:36.200Z,12.20
2019-05-12T04:59:08.598Z,12.30
2019-05-12T05:01:37.642Z,12.30
2019-05-12T05:04:06.658Z,12.20
2019-05-12T05:06:36.076Z,12.20
2019-05-12T05:09:07.863Z,12.20
2019-05-12T05:11:37.206Z,12.20
2019-05-12T05:14:06.548Z,12.10
2019-05-12T05:16:37.647Z,12.10
2019-05-12T05:19:09.201Z,12.00
2019-05-12T05:21:38.989Z,12.00
2019-05-12T05:24:08.312Z,12.00
2019-05-12T05:26:37.608Z,11.90
2019-05-12T05:29:07.199Z,11.90
2019-05-12T05:31:36.419Z,12.00
2019-05-12T05:34:05.558Z,12.00
2019-05-12T05:36:34.886Z,12.00
2019-05-12T05:39:06.724Z,11.90
2019-05-12T05:41:40.321Z,11.90
2019-05-12T05:44:07.480Z,12.00
2019-05-12T05:46:38.935Z,12.10
2019-05-12T05:49:07.440Z,12.20
2019-05-12T05:51:39.495Z,12.20
2019-05-12T05:54:07.251Z,12.20
2019-05-12T05:56:42.202Z,12.30
2019-05-12T05:59:09.036Z,12.30
2019-05-12T06:01:57.334Z,12.40
2019-05-12T06:04:26.429Z,12.50
2019-05-12T06:06:56.136Z,12.60
2019-05-12T06:09:25.926Z,12.50
2019-05-12T06:11:59.073Z,12.50
2019-05-12T06:14:28.593Z,12.50
2019-05-12T06:16:57.709Z,12.50
2019-05-12T06:19:27.415Z,12.50
2019-05-12T06:21:56.456Z,12.50
2019-05-12T06:24:25.651Z,12.50
2019-05-12T06:27:00.480Z,12.60
2019-05-12T06:29:25.563Z,12.40
2019-05-12T06:31:54.802Z,12.40
2019-05-12T06:34:23.984Z,12.30
2019-05-12T06:36:56.975Z,12.40
2019-05-12T06:39:24.040Z,12.40
2019-05-12T06:41:56.563Z,12.30
2019-05-12T06:44:25.875Z,12.40
2019-05-12T06:47:02.210Z,12.50
2019-05-12T06:49:26.530Z,12.40
2019-05-12T06:52:01.617Z,12.30
2019-05-12T06:54:26.703Z,12.20
2019-05-12T06:57:16.652Z,12.20
2019-05-12T06:59:31.128Z,12.30
2019-05-12T07:02:03.226Z,12.30
2019-05-12T07:04:34.073Z,12.30
2019-05-12T07:07:03.783Z,12.30
2019-05-12T07:09:39.722Z,12.40
2019-05-12T07:12:07.358Z,12.40
2019-05-12T07:14:36.787Z,12.50
2019-05-12T07:17:23.785Z,12.60
2019-05-12T07:19:54.657Z,12.70
2019-05-12T07:22:25.867Z,12.80
2019-05-12T07:24:55.169Z,12.80
2019-05-12T07:27:36.617Z,12.90
2019-05-12T07:29:59.552Z,12.90
2019-05-12T07:32:35.072Z,12.90
2019-05-12T07:35:09.497Z,12.80
2019-05-12T07:37:39.831Z,12.80
2019-05-12T07:40:13.631Z,12.80
2019-05-12T07:42:50.060Z,12.70
2019-05-12T07:45:25.081Z,12.80
2019-05-12T07:47:54.133Z,12.80
2019-05-12T07:50:26.995Z,12.90
2019-05-12T07:52:55.061Z,12.90
2019-05-12T07:55:24.341Z,13.00
2019-05-12T07:57:58.547Z,13.10
2019-05-12T08:00:25.732Z,13.10
2019-05-12T08:02:55.297Z,13.10
2019-05-12T08:05:28.425Z,13.10
2019-05-12T08:08:00.535Z,13.00
2019-05-12T08:10:28.919Z,13.10
2019-05-12T08:13:01.389Z,13.20
2019-05-12T08:15:33.926Z,13.20
2019-05-12T08:18:07.975Z,13.20
2019-05-12T08:20:36.693Z,13.30
2019-05-12T08:23:10.339Z,13.30
2019-05-12T08:25:38.399Z,13.40
2019-05-12T08:28:15.416Z,13.40
2019-05-12T08:30:47.560Z,13.40
2019-05-12T08:33:14.341Z,13.40
2019-05-12T08:35:43.824Z,13.40
2019-05-12T08:38:24.855Z,13.40
2019-05-12T08:40:54.567Z,13.50
2019-05-12T08:43:24.206Z,13.50
2019-05-12T08:45:53.787Z,13.60
2019-05-12T08:48:24.957Z,13.70
2019-05-12T08:50:54.796Z,13.70
2019-05-12T08:53:26.095Z,13.60
2019-05-12T08:55:55.124Z,13.60
2019-05-12T08:58:31.398Z,13.70
2019-05-12T09:00:56.332Z,13.70
2019-05-12T09:03:30.435Z,13.70
2019-05-12T09:05:58.814Z,13.80
2019-05-12T09:08:29.719Z,13.90
2019-05-12T09:11:00.057Z,13.90
2019-05-12T09:13:29.670Z,13.90
2019-05-12T09:16:01.125Z,13.90
2019-05-12T09:18:35.185Z,13.90
2019-05-12T09:21:03.575Z,14.00
2019-05-12T09:23:40.822Z,14.00
2019-05-12T09:26:05.949Z,14.00
2019-05-12T09:28:46.365Z,14.10
2019-05-12T09:31:06.501Z,14.10
2019-05-12T09:33:36.096Z,14.20
2019-05-12T09:36:11.334Z,14.30
2019-05-12T09:38:41.055Z,14.40
2019-05-12T09:41:10.587Z,14.50
2019-05-12T09:43:45.237Z,14.50
2019-05-12T09:46:11.170Z,14.60
2019-05-12T09:48:48.482Z,14.60
2019-05-12T09:51:13.407Z,14.60
2019-05-12T09:53:50.711Z,14.50
2019-05-12T09:56:25.648Z,14.50
2019-05-12T09:59:01.553Z,14.50
2019-05-12T10:01:37.399Z,14.60
2019-05-12T10:04:03.514Z,14.60
2019-05-12T10:06:34.391Z,14.60
2019-05-12T10:09:08.731Z,14.60
2019-05-12T10:11:37.043Z,14.60
2019-05-12T10:14:10.779Z,14.60
2019-05-12T10:16:45.590Z,14.60
2019-05-12T10:19:14.259Z,14.70
2019-05-12T10:21:43.990Z,14.80
2019-05-12T10:24:13.506Z,14.90
2019-05-12T10:26:48.948Z,14.90
2019-05-12T10:29:20.451Z,14.90
2019-05-12T10:31:45.940Z,14.90
2019-05-12T10:34:29.317Z,15.00
2019-05-12T10:36:58.911Z,15.00
2019-05-12T10:39:28.215Z,15.00
2019-05-12T10:41:58.059Z,15.00
2019-05-12T10:44:30.233Z,15.00
2019-05-12T10:47:00.213Z,15.00
2019-05-12T10:49:30.250Z,15.00
2019-05-12T10:51:59.433Z,15.00
2019-05-12T10:54:44.019Z,15.00
2019-05-12T10:57:14.905Z,15.00
2019-05-12T10:59:48.466Z,15.20
2019-05-12T11:02:20.532Z,15.20
2019-05-12T11:04:46.823Z,15.20
2019-05-12T11:07:16.452Z,15.30
2019-05-12T11:09:46.979Z,15.30
2019-05-12T11:12:19.253Z,15.30
2019-05-12T11:14:47.170Z,15.20
2019-05-12T11:17:17.054Z,15.30
2019-05-12T11:19:50.056Z,15.40
2019-05-12T11:22:18.580Z,15.40
2019-05-12T11:24:48.557Z,15.50
2019-05-12T11:27:17.928Z,15.50
2019-05-12T11:29:49.537Z,15.60
2019-05-12T11:32:19.194Z,15.60
2019-05-12T11:34:48.224Z,15.60
2019-05-12T11:37:19.736Z,15.70
2019-05-12T11:39:48.909Z,15.80
2019-05-12T11:42:19.604Z,15.80
2019-05-12T11:44:48.685Z,15.80
2019-05-12T11:47:24.234Z,15.80
2019-05-12T11:49:49.149Z,15.90
2019-05-12T11:52:19.361Z,16.00
2019-05-12T11:54:51.279Z,16.10
2019-05-12T11:57:28.186Z,16.10
2019-05-12T12:00:00.765Z,16.10
2019-05-12T12:02:26.226Z,16.10
2019-05-12T12:04:55.125Z,16.10
2019-05-12T12:07:24.788Z,16.20
2019-05-12T12:09:59.673Z,16.20
2019-05-12T12:12:29.503Z,16.30
2019-05-12T12:14:59.201Z,16.40
2019-05-12T12:17:31.142Z,16.50
2019-05-12T12:20:03.785Z,16.50
2019-05-12T12:22:43.567Z,16.60
2019-05-12T12:25:15.574Z,16.60
2019-05-12T12:27:45.098Z,16.60
2019-05-12T12:30:19.427Z,16.70
2019-05-12T12:32:50.374Z,16.80
2019-05-12T12:35:20.253Z,16.90
2019-05-12T12:37:49.462Z,16.90
2019-05-12T12:40:18.842Z,16.90
2019-05-12T12:42:48.077Z,16.80
2019-05-12T12:45:40.620Z,16.90
2019-05-12T12:48:10.787Z,16.90
2019-05-12T12:50:40.230Z,17.00
2019-05-12T12:53:09.488Z,17.00
2019-05-12T12:55:45.507Z,17.00
2019-05-12T12:58:14.754Z,17.10
2019-05-12T13:00:53.297Z,17.10
2019-05-12T13:03:19.767Z,17.20
2019-05-12T13:05:45.767Z,17.20
2019-05-12T13:08:15.150Z,17.20
2019-05-12T13:10:47.240Z,17.20
2019-05-12T13:13:16.634Z,17.30
2019-05-12T13:15:49.382Z,17.30
2019-05-12T13:18:31.999Z,17.30
2019-05-12T13:20:58.033Z,17.40
2019-05-12T13:23:36.765Z,17.30
2019-05-12T13:26:09.787Z,17.30
2019-05-12T13:31:48.543Z,17.40
2019-05-12T13:34:23.737Z,17.40
2019-05-12T13:36:58.390Z,17.30
2019-05-12T13:39:55.492Z,17.40
2019-05-12T13:42:24.152Z,17.40
2019-05-12T13:44:56.417Z,17.40
2019-05-12T13:47:34.365Z,17.40
2019-05-12T13:50:05.435Z,17.50
2019-05-12T13:52:35.999Z,17.50
2019-05-12T13:57:58.854Z,17.50
2019-05-12T14:00:29.756Z,17.60
2019-05-12T14:03:07.178Z,17.60
2019-05-12T14:05:31.413Z,17.60
2019-05-12T14:08:03.741Z,17.70
2019-05-12T14:10:36.984Z,17.80
2019-05-12T14:13:04.213Z,17.80
2019-05-12T14:15:34.087Z,17.90
2019-05-12T14:18:10.389Z,18.00
2019-05-12T14:20:37.971Z,18.00
2019-05-12T14:23:10.718Z,17.90
2019-05-12T14:25:43.861Z,17.90
2019-05-12T14:28:16.820Z,18.00
2019-05-12T14:30:52.209Z,18.00
2019-05-12T14:33:24.616Z,18.00
2019-05-12T14:35:58.082Z,18.10
2019-05-12T14:38:33.676Z,18.20
2019-05-12T14:41:10.020Z,18.10
2019-05-12T14:43:39.356Z,18.10
2019-05-12T14:46:13.450Z,18.10
2019-05-12T14:48:48.478Z,18.20
2019-05-12T14:51:14.754Z,18.20
2019-05-12T14:53:48.087Z,18.40
2019-05-12T14:56:18.327Z,18.50
2019-05-12T14:58:50.270Z,18.50
2019-05-12T15:01:19.488Z,18.50
2019-05-12T15:03:49.457Z,18.50
2019-05-12T15:06:25.739Z,18.50
2019-05-12T15:08:50.751Z,18.50
2019-05-12T15:11:20.196Z,18.50
2019-05-12T15:13:50.498Z,18.50
2019-05-12T15:16:23.636Z,18.50
2019-05-12T15:19:09.891Z,18.50
2019-05-12T15:21:39.594Z,18.50
2019-05-12T15:24:15.294Z,18.60
2019-05-12T15:26:42.806Z,18.60
2019-05-12T15:29:19.821Z,18.60
2019-05-12T15:31:55.883Z,18.80
2019-05-12T15:34:19.077Z,18.90
2019-05-12T15:36:52.023Z,18.90
2019-05-12T15:39:20.334Z,19.00
2019-05-12T15:41:51.022Z,19.00
2019-05-12T15:44:31.160Z,18.90
2019-05-12T15:46:54.177Z,18.80
2019-05-12T15:49:26.106Z,18.70
2019-05-12T15:51:58.478Z,18.60
2019-05-12T15:54:26.132Z,18.60
2019-05-12T15:56:56.175Z,18.60
2019-05-12T15:59:25.373Z,18.50
2019-05-12T16:02:08.638Z,18.40
2019-05-12T16:04:25.808Z,18.40
2019-05-12T16:06:58.043Z,18.40
2019-05-12T16:09:27.628Z,18.20
2019-05-12T16:11:57.572Z,18.20
2019-05-12T16:14:30.458Z,18.20
2019-05-12T16:16:58.722Z,18.20
2019-05-12T16:19:27.985Z,18.20
2019-05-12T16:21:57.390Z,18.10
2019-05-12T16:24:27.431Z,18.10
2019-05-12T16:26:56.874Z,18.00
2019-05-12T16:29:26.185Z,17.90
2019-05-12T16:31:55.625Z,17.90
2019-05-12T16:34:24.791Z,17.70
2019-05-12T16:36:54.794Z,17.70
2019-05-12T16:39:24.315Z,17.60
2019-05-12T16:41:54.433Z,17.60
2019-05-12T16:44:26.434Z,17.40
2019-05-12T16:46:57.073Z,17.20
2019-05-12T16:49:33.088Z,17.10
2019-05-12T16:51:57.355Z,17.00
2019-05-12T16:54:27.267Z,16.90
2019-05-12T16:57:00.246Z,16.90
2019-05-12T16:59:27.807Z,16.80
2019-05-12T17:01:59.373Z,16.80
2019-05-12T17:04:28.586Z,16.80
2019-05-12T17:07:02.761Z,16.80
2019-05-12T17:09:33.215Z,16.80
2019-05-12T17:12:05.083Z,16.70
2019-05-12T17:14:36.638Z,16.80
2019-05-12T17:17:05.287Z,16.80
2019-05-12T17:19:34.668Z,16.70
2019-05-12T17:22:04.295Z,16.60
2019-05-12T17:24:34.441Z,16.50
2019-05-12T17:27:09.278Z,16.30
2019-05-12T17:29:35.270Z,16.30
2019-05-12T17:32:04.955Z,16.40
2019-05-12T17:34:34.204Z,16.30
2019-05-12T17:37:04.127Z,16.30
2019-05-12T17:39:35.760Z,16.30
2019-05-12T17:42:04.571Z,16.40
2019-05-12T17:44:36.816Z,16.40
2019-05-12T17:47:04.856Z,16.40
2019-05-12T17:49:34.009Z,16.30
2019-05-12T17:52:12.462Z,16.30
2019-05-12T17:54:34.387Z,16.30
2019-05-12T17:57:03.959Z,16.30
2019-05-12T17:59:33.911Z,16.30
2019-05-12T18:02:05.932Z,16.30
2019-05-12T18:04:36.772Z,16.30
2019-05-12T18:07:12.811Z,16.20
2019-05-12T18:09:36.192Z,16.30
2019-05-12T18:12:05.902Z,16.30
2019-05-12T18:14:44.969Z,16.30
2019-05-12T18:17:08.694Z,16.20
2019-05-12T18:19:36.544Z,16.20
2019-05-12T18:22:09.249Z,16.20
2019-05-12T18:24:40.849Z,16.00
2019-05-12T18:27:07.965Z,15.90
2019-05-12T18:29:37.578Z,15.90
2019-05-12T18:32:13.778Z,15.90
2019-05-12T18:34:44.529Z,15.90
2019-05-12T18:37:14.989Z,16.00
2019-05-12T18:39:46.054Z,16.00
2019-05-12T18:42:37.640Z,15.90
2019-05-12T18:45:12.457Z,15.90
2019-05-12T18:47:44.064Z,15.90
2019-05-12T18:50:14.154Z,15.80
2019-05-12T18:52:46.279Z,15.80
2019-05-12T18:55:18.263Z,15.80
2019-05-12T18:57:49.865Z,15.70
2019-05-12T19:00:22.126Z,15.70
2019-05-12T19:02:59.539Z,15.70
2019-05-12T19:05:30.522Z,15.70
2019-05-12T19:07:57.584Z,15.60
2019-05-12T19:10:27.128Z,15.60
2019-05-12T19:13:01.560Z,15.60
2019-05-12T19:15:27.729Z,15.60
2019-05-12T19:17:59.257Z,15.60
2019-05-12T19:20:31.284Z,15.50
2019-05-12T19:23:00.238Z,15.50
2019-05-12T19:25:40.347Z,15.40
2019-05-12T19:28:10.578Z,15.50
2019-05-12T19:30:40.866Z,15.40
2019-05-12T19:33:13.637Z,15.50
2019-05-12T19:35:44.733Z,15.50
2019-05-12T19:38:34.426Z,15.50
2019-05-12T19:41:04.674Z,15.40
2019-05-12T19:43:34.178Z,15.30
2019-05-12T19:46:04.818Z,15.20
2019-05-12T19:48:43.197Z,15.10
2019-05-12T19:51:19.948Z,15.10
2019-05-12T19:53:36.090Z,15.10
2019-05-12T19:56:06.147Z,15.00
2019-05-12T19:58:35.212Z,15.00
2019-05-12T20:01:05.005Z,14.90
2019-05-12T20:03:34.400Z,14.90
2019-05-12T20:06:06.063Z,14.90
2019-05-12T20:08:35.487Z,14.90
2019-05-12T20:11:04.660Z,14.70
2019-05-12T20:13:38.293Z,14.70
2019-05-12T20:16:04.925Z,14.70
2019-05-12T20:18:42.453Z,14.70
2019-05-12T20:21:05.426Z,14.60
2019-05-12T20:23:34.935Z,14.60
2019-05-12T20:26:04.335Z,14.60
2019-05-12T20:28:34.584Z,14.50
2019-05-12T20:31:06.011Z,14.50
2019-05-12T20:33:34.904Z,14.60
2019-05-12T20:36:04.298Z,14.60
2019-05-12T20:38:36.412Z,14.60
2019-05-12T20:41:05.521Z,14.50
2019-05-12T20:43:38.174Z,14.40
2019-05-12T20:46:06.297Z,14.50
2019-05-12T20:48:35.535Z,14.50
2019-05-12T20:51:08.675Z,14.50
2019-05-12T20:53:36.668Z,14.50
2019-05-12T20:56:07.230Z,14.50
2019-05-12T20:58:43.108Z,14.50
2019-05-12T21:01:07.706Z,14.40
2019-05-12T21:03:39.846Z,14.40
2019-05-12T21:06:07.416Z,14.30
2019-05-12T21:08:37.670Z,14.30
2019-05-12T21:11:06.934Z,14.30
2019-05-12T21:13:36.436Z,14.30
2019-05-12T21:16:16.556Z,14.20
2019-05-12T21:18:48.001Z,14.20
2019-05-12T21:21:08.604Z,14.20
2019-05-12T21:23:37.703Z,14.10
2019-05-12T21:26:06.815Z,14.10
2019-05-12T21:28:46.205Z,14.10
2019-05-12T21:31:14.162Z,14.10
2019-05-12T21:33:43.278Z,14.10
2019-05-12T21:36:15.481Z,14.00
2019-05-12T21:38:43.527Z,14.00
2019-05-12T21:41:15.537Z,14.00
2019-05-12T21:43:44.365Z,14.00
2019-05-12T21:46:15.552Z,14.00
2019-05-12T21:48:44.299Z,14.00
2019-05-12T21:51:18.541Z,14.00
2019-05-12T21:53:44.584Z,14.00
2019-05-12T21:56:14.044Z,14.00
2019-05-12T21:58:53.475Z,14.00
2019-05-12T22:01:14.339Z,14.00
2019-05-12T22:03:45.880Z,13.90
2019-05-12T22:06:21.086Z,13.90
2019-05-12T22:08:45.162Z,13.90
2019-05-12T22:11:14.333Z,13.90
2019-05-12T22:13:46.765Z,13.90
2019-05-12T22:16:14.326Z,13.90
2019-05-12T22:18:43.822Z,13.80
2019-05-12T22:21:13.633Z,13.80
2019-05-12T22:23:50.951Z,13.80
2019-05-12T22:26:13.735Z,13.90
2019-05-12T22:28:46.731Z,13.90
2019-05-12T22:31:13.798Z,13.90
2019-05-12T22:33:49.867Z,13.80
2019-05-12T22:36:20.781Z,13.90
2019-05-12T22:38:44.537Z,13.90
2019-05-12T22:41:13.727Z,13.80
2019-05-12T22:43:45.843Z,13.80
2019-05-12T22:46:16.455Z,13.90
2019-05-12T22:48:45.297Z,13.90
2019-05-12T22:51:23.111Z,13.80
2019-05-12T22:53:45.801Z,13.70
2019-05-12T22:56:18.146Z,13.70
2019-05-12T22:58:45.989Z,13.70
2019-05-12T23:01:14.918Z,13.70
2019-05-12T23:03:51.238Z,13.70
2019-05-12T23:06:23.802Z,13.70
2019-05-12T23:08:49.278Z,13.70
2019-05-12T23:11:17.768Z,13.70
2019-05-12T23:13:46.754Z,13.50
2019-05-12T23:16:19.304Z,13.50
2019-05-12T23:18:46.978Z,13.40
2019-05-12T23:21:17.607Z,13.30
2019-05-12T23:23:49.981Z,13.10
2019-05-12T23:26:17.374Z,13.10
2019-05-12T23:28:50.120Z,13.00
2019-05-12T23:31:19.530Z,13.00
2019-05-12T23:33:47.854Z,12.90
2019-05-12T23:36:19.589Z,12.80
2019-05-12T23:38:54.483Z,12.70
2019-05-12T23:41:18.232Z,12.80
2019-05-12T23:43:47.156Z,12.80
2019-05-12T23:46:16.267Z,12.80
2019-05-12T23:48:45.345Z,12.70
2019-05-12T23:51:14.557Z,12.60
2019-05-12T23:53:43.594Z,12.50
2019-05-12T23:56:12.582Z,12.40
2019-05-12T23:58:43.319Z,12.40
